sensor_id;sensor_type;location;lat;lon;timestamp;temperature;humidity
12893;DHT22;6514;48.606;9.222;2024-02-21T00:01:30;4.30;99.90
12893;DHT22;6514;48.606;9.222;2024-02-21T00:03:57;4.30;99.90
12893;DHT22;6514;48.606;9.222;2024-02-21T00:06:25;4.40;99.90
12893;DHT22;6514;48.606;9.222;2024-02-21T00:08:52;4.30;99.90
12893;DHT22;6514;48.606;9.222;2024-02-21T00:11:19;4.30;99.90
12893;DHT22;6514;48.606;9.222;2024-02-21T00:13:46;4.30;99.90
12893;DHT22;6514;48.606;9.222;2024-02-21T00:16:13;4.40;99.90
12893;DHT22;6514;48.606;9.222;2024-02-21T00:18:41;4.40;99.90
12893;DHT22;6514;48.606;9.222;2024-02-21T00:21:08;4.40;99.90
12893;DHT22;6514;48.606;9.222;2024-02-21T00:23:36;4.50;99.90
12893;DHT22;6514;48.606;9.222;2024-02-21T00:26:03;4.50;99.90
12893;DHT22;6514;48.606;9.222;2024-02-21T00:28:31;4.60;99.90
12893;DHT22;6514;48.606;9.222;2024-02-21T00:30:58;4.60;99.90
12893;DHT22;6514;48.606;9.222;2024-02-21T00:33:24;4.60;99.90
12893;DHT22;6514;48.606;9.222;2024-02-21T00:35:51;4.70;99.90
12893;DHT22;6514;48.606;9.222;2024-02-21T00:38:20;4.60;99.90
12893;DHT22;6514;48.606;9.222;2024-02-21T00:40:48;4.60;99.90
12893;DHT22;6514;48.606;9.222;2024-02-21T00:43:15;4.60;99.90
12893;DHT22;6514;48.606;9.222;2024-02-21T00:45:42;4.60;99.90
12893;DHT22;6514;48.606;9.222;2024-02-21T00:48:08;4.60;99.90
12893;DHT22;6514;48.606;9.222;2024-02-21T00:50:38;4.60;99.90
12893;DHT22;6514;48.606;9.222;2024-02-21T00:53:05;4.60;99.90
12893;DHT22;6514;48.606;9.222;2024-02-21T00:55:32;4.60;99.90
12893;DHT22;6514;48.606;9.222;2024-02-21T00:58:00;4.60;99.90
12893;DHT22;6514;48.606;9.222;2024-02-21T01:00:27;4.60;99.90
12893;DHT22;6514;48.606;9.222;2024-02-21T01:02:53;4.60;99.90
12893;DHT22;6514;48.606;9.222;2024-02-21T01:05:20;4.60;99.90
12893;DHT22;6514;48.606;9.222;2024-02-21T01:07:48;4.60;99.90
12893;DHT22;6514;48.606;9.222;2024-02-21T01:10:15;4.60;99.90
12893;DHT22;6514;48.606;9.222;2024-02-21T01:12:42;4.70;99.90
12893;DHT22;6514;48.606;9.222;2024-02-21T01:15:10;4.60;99.90
12893;DHT22;6514;48.606;9.222;2024-02-21T01:17:37;4.70;99.90
12893;DHT22;6514;48.606;9.222;2024-02-21T01:20:07;4.60;99.90
12893;DHT22;6514;48.606;9.222;2024-02-21T01:22:33;4.60;99.90
12893;DHT22;6514;48.606;9.222;2024-02-21T01:25:00;4.70;99.90
12893;DHT22;6514;48.606;9.222;2024-02-21T01:27:27;4.70;99.90
12893;DHT22;6514;48.606;9.222;2024-02-21T01:29:54;4.70;99.90
12893;DHT22;6514;48.606;9.222;2024-02-21T01:32:22;4.70;99.90
12893;DHT22;6514;48.606;9.222;2024-02-21T01:34:50;4.80;99.90
12893;DHT22;6514;48.606;9.222;2024-02-21T01:37:17;4.70;99.90
12893;DHT22;6514;48.606;9.222;2024-02-21T01:39:43;4.80;99.90
12893;DHT22;6514;48.606;9.222;2024-02-21T01:42:10;4.90;99.90
12893;DHT22;6514;48.606;9.222;2024-02-21T01:44:37;4.80;99.90
12893;DHT22;6514;48.606;9.222;2024-02-21T01:47:04;4.70;99.90
12893;DHT22;6514;48.606;9.222;2024-02-21T01:49:33;4.80;99.90
12893;DHT22;6514;48.606;9.222;2024-02-21T01:52:00;4.70;99.90
12893;DHT22;6514;48.606;9.222;2024-02-21T01:54:30;4.80;99.90
12893;DHT22;6514;48.606;9.222;2024-02-21T01:56:58;4.80;99.90
12893;DHT22;6514;48.606;9.222;2024-02-21T01:59:25;4.80;99.90
12893;DHT22;6514;48.606;9.222;2024-02-21T02:01:52;4.80;99.90
12893;DHT22;6514;48.606;9.222;2024-02-21T02:04:20;4.80;99.90
12893;DHT22;6514;48.606;9.222;2024-02-21T02:06:49;4.80;99.90
12893;DHT22;6514;48.606;9.222;2024-02-21T02:09:17;4.70;99.90
12893;DHT22;6514;48.606;9.222;2024-02-21T02:11:44;4.70;99.90
12893;DHT22;6514;48.606;9.222;2024-02-21T02:14:10;4.70;99.90
12893;DHT22;6514;48.606;9.222;2024-02-21T02:16:37;4.70;99.90
12893;DHT22;6514;48.606;9.222;2024-02-21T02:19:04;4.70;99.90
12893;DHT22;6514;48.606;9.222;2024-02-21T02:21:34;4.70;99.90
12893;DHT22;6514;48.606;9.222;2024-02-21T02:24:03;4.70;99.90
12893;DHT22;6514;48.606;9.222;2024-02-21T02:26:30;4.60;99.90
12893;DHT22;6514;48.606;9.222;2024-02-21T02:28:57;4.60;99.90
12893;DHT22;6514;48.606;9.222;2024-02-21T02:31:24;4.50;99.90
12893;DHT22;6514;48.606;9.222;2024-02-21T02:33:51;4.50;99.90
12893;DHT22;6514;48.606;9.222;2024-02-21T02:36:17;4.40;99.90
12893;DHT22;6514;48.606;9.222;2024-02-21T02:38:44;4.40;99.90
12893;DHT22;6514;48.606;9.222;2024-02-21T02:41:13;4.50;99.90
12893;DHT22;6514;48.606;9.222;2024-02-21T02:43:39;4.40;99.90
12893;DHT22;6514;48.606;9.222;2024-02-21T02:46:06;4.40;99.90
12893;DHT22;6514;48.606;9.222;2024-02-21T02:48:33;4.50;99.90
12893;DHT22;6514;48.606;9.222;2024-02-21T02:51:00;4.50;99.90
12893;DHT22;6514;48.606;9.222;2024-02-21T02:53:26;4.50;99.90
12893;DHT22;6514;48.606;9.222;2024-02-21T02:55:54;4.50;99.90
12893;DHT22;6514;48.606;9.222;2024-02-21T02:58:22;4.50;99.90
12893;DHT22;6514;48.606;9.222;2024-02-21T03:00:48;4.50;99.90
12893;DHT22;6514;48.606;9.222;2024-02-21T03:03:15;4.50;99.90
12893;DHT22;6514;48.606;9.222;2024-02-21T03:05:42;4.50;99.90
12893;DHT22;6514;48.606;9.222;2024-02-21T03:08:09;4.60;99.90
12893;DHT22;6514;48.606;9.222;2024-02-21T03:10:36;4.60;99.90
12893;DHT22;6514;48.606;9.222;2024-02-21T03:13:03;4.60;99.90
12893;DHT22;6514;48.606;9.222;2024-02-21T03:15:31;4.70;99.90
12893;DHT22;6514;48.606;9.222;2024-02-21T03:17:58;4.60;99.90
12893;DHT22;6514;48.606;9.222;2024-02-21T03:20:25;4.70;99.90
12893;DHT22;6514;48.606;9.222;2024-02-21T03:22:52;4.70;99.90
12893;DHT22;6514;48.606;9.222;2024-02-21T03:25:19;4.60;99.90
12893;DHT22;6514;48.606;9.222;2024-02-21T03:27:46;4.70;99.90
12893;DHT22;6514;48.606;9.222;2024-02-21T03:30:13;4.70;99.90
12893;DHT22;6514;48.606;9.222;2024-02-21T03:32:41;4.70;99.90
12893;DHT22;6514;48.606;9.222;2024-02-21T03:35:08;4.70;99.90
12893;DHT22;6514;48.606;9.222;2024-02-21T03:37:35;4.70;99.90
12893;DHT22;6514;48.606;9.222;2024-02-21T03:40:02;4.70;99.90
12893;DHT22;6514;48.606;9.222;2024-02-21T03:42:28;4.70;99.90
12893;DHT22;6514;48.606;9.222;2024-02-21T03:44:57;4.70;99.90
12893;DHT22;6514;48.606;9.222;2024-02-21T03:47:23;4.70;99.90
12893;DHT22;6514;48.606;9.222;2024-02-21T03:49:52;4.70;99.90
12893;DHT22;6514;48.606;9.222;2024-02-21T03:52:18;4.80;99.90
12893;DHT22;6514;48.606;9.222;2024-02-21T03:54:45;4.80;99.90
12893;DHT22;6514;48.606;9.222;2024-02-21T03:57:12;4.80;99.90
12893;DHT22;6514;48.606;9.222;2024-02-21T03:59:39;4.80;99.90
12893;DHT22;6514;48.606;9.222;2024-02-21T04:02:06;4.90;99.90
12893;DHT22;6514;48.606;9.222;2024-02-21T04:04:34;5.00;99.90
12893;DHT22;6514;48.606;9.222;2024-02-21T04:07:04;4.90;99.90
12893;DHT22;6514;48.606;9.222;2024-02-21T04:09:32;4.90;99.90
12893;DHT22;6514;48.606;9.222;2024-02-21T04:11:59;5.00;99.90
12893;DHT22;6514;48.606;9.222;2024-02-21T04:14:26;5.00;99.90
12893;DHT22;6514;48.606;9.222;2024-02-21T04:16:53;5.00;99.90
12893;DHT22;6514;48.606;9.222;2024-02-21T04:19:19;5.00;99.90
12893;DHT22;6514;48.606;9.222;2024-02-21T04:21:46;5.40;99.90
12893;DHT22;6514;48.606;9.222;2024-02-21T04:24:14;5.00;99.90
12893;DHT22;6514;48.606;9.222;2024-02-21T04:26:41;5.00;99.90
12893;DHT22;6514;48.606;9.222;2024-02-21T04:29:09;5.00;99.90
12893;DHT22;6514;48.606;9.222;2024-02-21T04:31:36;4.90;99.90
12893;DHT22;6514;48.606;9.222;2024-02-21T04:34:02;4.90;99.90
12893;DHT22;6514;48.606;9.222;2024-02-21T04:36:29;4.90;99.90
12893;DHT22;6514;48.606;9.222;2024-02-21T04:38:59;4.80;99.90
12893;DHT22;6514;48.606;9.222;2024-02-21T04:41:27;4.80;99.90
12893;DHT22;6514;48.606;9.222;2024-02-21T04:43:54;4.90;99.90
12893;DHT22;6514;48.606;9.222;2024-02-21T04:46:21;4.80;99.90
12893;DHT22;6514;48.606;9.222;2024-02-21T04:48:49;4.70;99.90
12893;DHT22;6514;48.606;9.222;2024-02-21T04:51:15;4.70;99.90
12893;DHT22;6514;48.606;9.222;2024-02-21T04:53:42;4.60;99.90
12893;DHT22;6514;48.606;9.222;2024-02-21T04:56:10;4.50;99.90
12893;DHT22;6514;48.606;9.222;2024-02-21T04:58:39;4.40;99.90
12893;DHT22;6514;48.606;9.222;2024-02-21T05:01:06;4.40;99.90
12893;DHT22;6514;48.606;9.222;2024-02-21T05:03:33;4.40;99.90
12893;DHT22;6514;48.606;9.222;2024-02-21T05:06:00;4.40;99.90
12893;DHT22;6514;48.606;9.222;2024-02-21T05:08:27;4.40;99.90
12893;DHT22;6514;48.606;9.222;2024-02-21T05:10:53;4.30;99.90
12893;DHT22;6514;48.606;9.222;2024-02-21T05:13:20;4.30;99.90
12893;DHT22;6514;48.606;9.222;2024-02-21T05:15:48;4.30;99.90
12893;DHT22;6514;48.606;9.222;2024-02-21T05:18:15;4.20;99.90
12893;DHT22;6514;48.606;9.222;2024-02-21T05:20:42;4.20;99.90
12893;DHT22;6514;48.606;9.222;2024-02-21T05:23:09;4.20;99.90
12893;DHT22;6514;48.606;9.222;2024-02-21T05:25:36;4.10;99.90
12893;DHT22;6514;48.606;9.222;2024-02-21T05:28:03;4.10;99.90
12893;DHT22;6514;48.606;9.222;2024-02-21T05:30:31;4.10;99.90
12893;DHT22;6514;48.606;9.222;2024-02-21T05:33:04;4.10;99.90
12893;DHT22;6514;48.606;9.222;2024-02-21T05:35:30;4.10;99.90
12893;DHT22;6514;48.606;9.222;2024-02-21T05:37:57;4.10;99.90
12893;DHT22;6514;48.606;9.222;2024-02-21T05:40:24;4.10;99.90
12893;DHT22;6514;48.606;9.222;2024-02-21T05:42:51;4.00;99.90
12893;DHT22;6514;48.606;9.222;2024-02-21T05:45:18;4.00;99.90
12893;DHT22;6514;48.606;9.222;2024-02-21T05:47:45;3.90;99.90
12893;DHT22;6514;48.606;9.222;2024-02-21T05:50:13;3.90;99.90
12893;DHT22;6514;48.606;9.222;2024-02-21T05:52:40;3.80;99.90
12893;DHT22;6514;48.606;9.222;2024-02-21T05:55:09;3.70;99.90
12893;DHT22;6514;48.606;9.222;2024-02-21T05:57:36;3.70;99.90
12893;DHT22;6514;48.606;9.222;2024-02-21T06:00:04;3.60;99.90
12893;DHT22;6514;48.606;9.222;2024-02-21T06:02:31;3.60;99.90
12893;DHT22;6514;48.606;9.222;2024-02-21T06:04:58;3.50;99.90
12893;DHT22;6514;48.606;9.222;2024-02-21T06:07:26;3.50;99.90
12893;DHT22;6514;48.606;9.222;2024-02-21T06:09:53;3.40;99.90
12893;DHT22;6514;48.606;9.222;2024-02-21T06:12:20;3.50;99.90
12893;DHT22;6514;48.606;9.222;2024-02-21T06:14:47;3.50;99.90
12893;DHT22;6514;48.606;9.222;2024-02-21T06:17:14;3.40;99.90
12893;DHT22;6514;48.606;9.222;2024-02-21T06:19:43;3.40;99.90
12893;DHT22;6514;48.606;9.222;2024-02-21T06:22:10;3.40;99.90
12893;DHT22;6514;48.606;9.222;2024-02-21T06:24:38;3.40;99.90
12893;DHT22;6514;48.606;9.222;2024-02-21T06:27:05;3.40;99.90
12893;DHT22;6514;48.606;9.222;2024-02-21T06:29:32;3.40;99.90
12893;DHT22;6514;48.606;9.222;2024-02-21T06:31:59;3.40;99.90
12893;DHT22;6514;48.606;9.222;2024-02-21T06:34:26;3.40;99.90
12893;DHT22;6514;48.606;9.222;2024-02-21T06:36:53;3.40;99.90
12893;DHT22;6514;48.606;9.222;2024-02-21T06:39:20;3.50;99.90
12893;DHT22;6514;48.606;9.222;2024-02-21T06:41:50;3.50;99.90
12893;DHT22;6514;48.606;9.222;2024-02-21T06:44:18;3.60;99.90
12893;DHT22;6514;48.606;9.222;2024-02-21T06:46:45;3.60;99.90
12893;DHT22;6514;48.606;9.222;2024-02-21T06:49:12;3.70;99.90
12893;DHT22;6514;48.606;9.222;2024-02-21T06:51:41;3.80;99.90
12893;DHT22;6514;48.606;9.222;2024-02-21T06:54:08;3.90;99.90
12893;DHT22;6514;48.606;9.222;2024-02-21T06:56:36;4.00;99.90
12893;DHT22;6514;48.606;9.222;2024-02-21T06:59:04;4.00;99.90
12893;DHT22;6514;48.606;9.222;2024-02-21T07:01:31;4.20;99.90
12893;DHT22;6514;48.606;9.222;2024-02-21T07:03:58;4.30;99.90
12893;DHT22;6514;48.606;9.222;2024-02-21T07:06:25;4.40;99.90
12893;DHT22;6514;48.606;9.222;2024-02-21T07:08:51;4.50;99.90
12893;DHT22;6514;48.606;9.222;2024-02-21T07:11:18;4.60;99.90
12893;DHT22;6514;48.606;9.222;2024-02-21T07:13:45;4.70;99.90
12893;DHT22;6514;48.606;9.222;2024-02-21T07:16:13;4.80;99.90
12893;DHT22;6514;48.606;9.222;2024-02-21T07:18:40;5.00;99.90
12893;DHT22;6514;48.606;9.222;2024-02-21T07:21:07;5.20;99.90
12893;DHT22;6514;48.606;9.222;2024-02-21T07:23:34;5.30;99.90
12893;DHT22;6514;48.606;9.222;2024-02-21T07:26:00;5.50;99.90
12893;DHT22;6514;48.606;9.222;2024-02-21T07:28:27;5.60;99.90
12893;DHT22;6514;48.606;9.222;2024-02-21T07:30:54;5.80;99.90
12893;DHT22;6514;48.606;9.222;2024-02-21T07:33:22;6.00;99.90
12893;DHT22;6514;48.606;9.222;2024-02-21T07:35:49;6.20;99.90
12893;DHT22;6514;48.606;9.222;2024-02-21T07:38:16;6.50;99.90
12893;DHT22;6514;48.606;9.222;2024-02-21T07:40:44;6.70;99.90
12893;DHT22;6514;48.606;9.222;2024-02-21T07:43:11;7.10;99.90
12893;DHT22;6514;48.606;9.222;2024-02-21T07:45:38;7.50;99.90
12893;DHT22;6514;48.606;9.222;2024-02-21T07:48:05;7.70;99.90
12893;DHT22;6514;48.606;9.222;2024-02-21T07:50:34;7.90;99.90
12893;DHT22;6514;48.606;9.222;2024-02-21T07:53:01;8.00;99.90
12893;DHT22;6514;48.606;9.222;2024-02-21T07:55:27;8.10;99.90
12893;DHT22;6514;48.606;9.222;2024-02-21T07:57:54;8.20;99.90
12893;DHT22;6514;48.606;9.222;2024-02-21T08:00:22;8.20;99.90
12893;DHT22;6514;48.606;9.222;2024-02-21T08:02:49;8.40;99.90
12893;DHT22;6514;48.606;9.222;2024-02-21T08:05:16;8.40;99.90
12893;DHT22;6514;48.606;9.222;2024-02-21T08:07:44;8.40;99.90
12893;DHT22;6514;48.606;9.222;2024-02-21T08:10:11;8.40;99.90
12893;DHT22;6514;48.606;9.222;2024-02-21T08:12:38;8.40;99.90
12893;DHT22;6514;48.606;9.222;2024-02-21T08:15:05;8.50;99.90
12893;DHT22;6514;48.606;9.222;2024-02-21T08:17:33;8.50;99.90
12893;DHT22;6514;48.606;9.222;2024-02-21T08:20:00;8.60;99.90
12893;DHT22;6514;48.606;9.222;2024-02-21T08:22:26;8.60;99.90
12893;DHT22;6514;48.606;9.222;2024-02-21T08:24:54;8.50;99.90
12893;DHT22;6514;48.606;9.222;2024-02-21T08:27:21;8.40;99.90
12893;DHT22;6514;48.606;9.222;2024-02-21T08:29:48;8.40;99.90
12893;DHT22;6514;48.606;9.222;2024-02-21T08:32:15;8.40;99.90
12893;DHT22;6514;48.606;9.222;2024-02-21T08:34:42;8.40;99.90
12893;DHT22;6514;48.606;9.222;2024-02-21T08:37:08;8.50;99.90
12893;DHT22;6514;48.606;9.222;2024-02-21T08:39:36;8.70;99.90
12893;DHT22;6514;48.606;9.222;2024-02-21T08:42:04;8.80;99.90
12893;DHT22;6514;48.606;9.222;2024-02-21T08:44:31;8.90;99.90
12893;DHT22;6514;48.606;9.222;2024-02-21T08:46:58;9.10;99.90
12893;DHT22;6514;48.606;9.222;2024-02-21T08:49:25;9.30;99.90
12893;DHT22;6514;48.606;9.222;2024-02-21T08:51:54;9.40;99.90
12893;DHT22;6514;48.606;9.222;2024-02-21T08:54:20;9.50;99.90
12893;DHT22;6514;48.606;9.222;2024-02-21T08:56:47;9.60;99.90
12893;DHT22;6514;48.606;9.222;2024-02-21T08:59:15;9.60;99.90
12893;DHT22;6514;48.606;9.222;2024-02-21T09:01:43;9.70;99.90
12893;DHT22;6514;48.606;9.222;2024-02-21T09:04:10;9.80;99.90
12893;DHT22;6514;48.606;9.222;2024-02-21T09:06:37;9.80;99.90
12893;DHT22;6514;48.606;9.222;2024-02-21T09:09:07;9.80;99.90
12893;DHT22;6514;48.606;9.222;2024-02-21T09:11:34;9.80;99.90
12893;DHT22;6514;48.606;9.222;2024-02-21T09:14:01;10.00;99.90
12893;DHT22;6514;48.606;9.222;2024-02-21T09:16:30;10.00;99.90
12893;DHT22;6514;48.606;9.222;2024-02-21T09:18:58;10.20;99.90
12893;DHT22;6514;48.606;9.222;2024-02-21T09:21:26;10.30;99.90
12893;DHT22;6514;48.606;9.222;2024-02-21T09:23:53;10.50;99.90
12893;DHT22;6514;48.606;9.222;2024-02-21T09:26:20;10.50;99.90
12893;DHT22;6514;48.606;9.222;2024-02-21T09:28:47;10.50;99.90
12893;DHT22;6514;48.606;9.222;2024-02-21T09:31:14;10.50;99.90
12893;DHT22;6514;48.606;9.222;2024-02-21T09:33:42;10.50;99.90
12893;DHT22;6514;48.606;9.222;2024-02-21T09:36:09;10.50;99.90
12893;DHT22;6514;48.606;9.222;2024-02-21T09:38:36;10.60;99.90
12893;DHT22;6514;48.606;9.222;2024-02-21T09:41:14;10.90;99.90
12893;DHT22;6514;48.606;9.222;2024-02-21T09:43:42;10.90;99.90
12893;DHT22;6514;48.606;9.222;2024-02-21T09:46:15;11.00;99.90
12893;DHT22;6514;48.606;9.222;2024-02-21T09:48:54;11.10;99.90
12893;DHT22;6514;48.606;9.222;2024-02-21T09:51:30;11.20;99.90
12893;DHT22;6514;48.606;9.222;2024-02-21T09:53:59;11.30;99.90
12893;DHT22;6514;48.606;9.222;2024-02-21T09:56:27;11.60;99.90
12893;DHT22;6514;48.606;9.222;2024-02-21T09:58:54;11.80;99.90
12893;DHT22;6514;48.606;9.222;2024-02-21T10:01:20;12.00;99.90
12893;DHT22;6514;48.606;9.222;2024-02-21T10:03:49;12.00;99.90
12893;DHT22;6514;48.606;9.222;2024-02-21T10:06:15;12.10;99.90
12893;DHT22;6514;48.606;9.222;2024-02-21T10:08:42;12.20;99.90
12893;DHT22;6514;48.606;9.222;2024-02-21T10:11:10;12.00;99.90
12893;DHT22;6514;48.606;9.222;2024-02-21T10:13:37;12.00;99.90
12893;DHT22;6514;48.606;9.222;2024-02-21T10:16:05;12.10;99.90
12893;DHT22;6514;48.606;9.222;2024-02-21T10:18:33;12.30;99.90
12893;DHT22;6514;48.606;9.222;2024-02-21T10:21:02;12.60;99.90
12893;DHT22;6514;48.606;9.222;2024-02-21T10:23:41;12.80;99.90
12893;DHT22;6514;48.606;9.222;2024-02-21T10:26:08;13.10;99.90
12893;DHT22;6514;48.606;9.222;2024-02-21T10:28:36;13.40;99.90
12893;DHT22;6514;48.606;9.222;2024-02-21T10:31:07;13.50;99.90
12893;DHT22;6514;48.606;9.222;2024-02-21T10:33:34;13.70;99.90
12893;DHT22;6514;48.606;9.222;2024-02-21T10:36:09;13.90;99.90
12893;DHT22;6514;48.606;9.222;2024-02-21T10:38:37;14.00;99.90
12893;DHT22;6514;48.606;9.222;2024-02-21T10:41:05;14.10;99.90
12893;DHT22;6514;48.606;9.222;2024-02-21T10:43:37;14.10;99.90
12893;DHT22;6514;48.606;9.222;2024-02-21T10:46:06;13.80;99.90
12893;DHT22;6514;48.606;9.222;2024-02-21T10:48:41;14.10;99.90
12893;DHT22;6514;48.606;9.222;2024-02-21T10:51:17;14.30;99.90
12893;DHT22;6514;48.606;9.222;2024-02-21T10:53:47;14.30;99.90
12893;DHT22;6514;48.606;9.222;2024-02-21T10:56:22;14.50;99.90
12893;DHT22;6514;48.606;9.222;2024-02-21T10:58:49;14.50;99.90
12893;DHT22;6514;48.606;9.222;2024-02-21T11:01:18;14.50;99.90
12893;DHT22;6514;48.606;9.222;2024-02-21T11:03:46;14.30;99.90
12893;DHT22;6514;48.606;9.222;2024-02-21T11:06:16;14.30;99.90
12893;DHT22;6514;48.606;9.222;2024-02-21T11:08:44;14.30;99.90
12893;DHT22;6514;48.606;9.222;2024-02-21T11:11:12;14.40;99.90
12893;DHT22;6514;48.606;9.222;2024-02-21T11:13:43;14.40;99.90
12893;DHT22;6514;48.606;9.222;2024-02-21T11:16:21;14.30;99.90
12893;DHT22;6514;48.606;9.222;2024-02-21T11:18:50;14.40;99.90
12893;DHT22;6514;48.606;9.222;2024-02-21T11:21:18;14.20;99.90
12893;DHT22;6514;48.606;9.222;2024-02-21T11:23:55;14.40;99.90
12893;DHT22;6514;48.606;9.222;2024-02-21T11:26:22;14.40;99.90
12893;DHT22;6514;48.606;9.222;2024-02-21T11:28:56;14.40;99.90
12893;DHT22;6514;48.606;9.222;2024-02-21T11:31:23;14.30;99.90
12893;DHT22;6514;48.606;9.222;2024-02-21T11:33:52;14.20;99.90
12893;DHT22;6514;48.606;9.222;2024-02-21T11:36:25;14.20;99.90
12893;DHT22;6514;48.606;9.222;2024-02-21T11:38:52;14.40;99.90
12893;DHT22;6514;48.606;9.222;2024-02-21T11:41:19;14.60;99.90
12893;DHT22;6514;48.606;9.222;2024-02-21T11:43:46;14.80;99.90
12893;DHT22;6514;48.606;9.222;2024-02-21T11:46:14;15.00;99.90
12893;DHT22;6514;48.606;9.222;2024-02-21T11:48:41;14.80;99.90
12893;DHT22;6514;48.606;9.222;2024-02-21T11:51:10;14.90;99.90
12893;DHT22;6514;48.606;9.222;2024-02-21T11:53:38;15.00;99.90
12893;DHT22;6514;48.606;9.222;2024-02-21T11:56:06;15.00;99.90
12893;DHT22;6514;48.606;9.222;2024-02-21T11:58:33;14.80;99.90
12893;DHT22;6514;48.606;9.222;2024-02-21T12:01:00;14.70;99.90
12893;DHT22;6514;48.606;9.222;2024-02-21T12:03:28;14.60;99.90
12893;DHT22;6514;48.606;9.222;2024-02-21T12:05:55;14.30;99.90
12893;DHT22;6514;48.606;9.222;2024-02-21T12:08:24;14.20;99.90
12893;DHT22;6514;48.606;9.222;2024-02-21T12:10:52;14.20;99.90
12893;DHT22;6514;48.606;9.222;2024-02-21T12:13:22;14.20;99.90
12893;DHT22;6514;48.606;9.222;2024-02-21T12:15:49;14.20;99.90
12893;DHT22;6514;48.606;9.222;2024-02-21T12:18:16;14.20;99.90
12893;DHT22;6514;48.606;9.222;2024-02-21T12:20:43;14.30;99.90
12893;DHT22;6514;48.606;9.222;2024-02-21T12:23:11;14.30;99.90
12893;DHT22;6514;48.606;9.222;2024-02-21T12:25:39;14.40;99.90
12893;DHT22;6514;48.606;9.222;2024-02-21T12:28:07;14.60;99.90
12893;DHT22;6514;48.606;9.222;2024-02-21T12:30:34;14.80;99.90
12893;DHT22;6514;48.606;9.222;2024-02-21T12:33:05;15.00;99.90
12893;DHT22;6514;48.606;9.222;2024-02-21T12:35:32;15.00;99.90
12893;DHT22;6514;48.606;9.222;2024-02-21T12:37:59;15.10;99.90
12893;DHT22;6514;48.606;9.222;2024-02-21T12:40:27;15.00;99.90
12893;DHT22;6514;48.606;9.222;2024-02-21T12:42:58;15.30;99.90
12893;DHT22;6514;48.606;9.222;2024-02-21T12:45:26;15.40;99.90
12893;DHT22;6514;48.606;9.222;2024-02-21T12:47:53;15.30;99.90
12893;DHT22;6514;48.606;9.222;2024-02-21T12:50:23;15.50;99.90
12893;DHT22;6514;48.606;9.222;2024-02-21T12:52:50;15.60;99.90
12893;DHT22;6514;48.606;9.222;2024-02-21T12:55:17;15.50;99.90
12893;DHT22;6514;48.606;9.222;2024-02-21T12:57:43;15.50;99.90
12893;DHT22;6514;48.606;9.222;2024-02-21T13:00:11;15.30;99.90
12893;DHT22;6514;48.606;9.222;2024-02-21T13:02:41;15.30;99.90
12893;DHT22;6514;48.606;9.222;2024-02-21T13:05:08;15.10;99.90
12893;DHT22;6514;48.606;9.222;2024-02-21T13:07:35;15.10;99.90
12893;DHT22;6514;48.606;9.222;2024-02-21T13:10:02;15.20;99.90
12893;DHT22;6514;48.606;9.222;2024-02-21T13:12:30;15.20;99.90
12893;DHT22;6514;48.606;9.222;2024-02-21T13:14:57;15.10;99.90
12893;DHT22;6514;48.606;9.222;2024-02-21T13:17:24;15.10;99.90
12893;DHT22;6514;48.606;9.222;2024-02-21T13:19:57;15.10;99.90
12893;DHT22;6514;48.606;9.222;2024-02-21T13:22:24;15.00;99.90
12893;DHT22;6514;48.606;9.222;2024-02-21T13:24:52;15.00;99.90
12893;DHT22;6514;48.606;9.222;2024-02-21T13:27:19;15.00;99.90
12893;DHT22;6514;48.606;9.222;2024-02-21T13:29:46;15.00;99.90
12893;DHT22;6514;48.606;9.222;2024-02-21T13:32:13;16.20;99.90
12893;DHT22;6514;48.606;9.222;2024-02-21T13:34:41;15.00;99.90
12893;DHT22;6514;48.606;9.222;2024-02-21T13:37:10;14.90;99.90
12893;DHT22;6514;48.606;9.222;2024-02-21T13:39:37;15.00;99.90
12893;DHT22;6514;48.606;9.222;2024-02-21T13:42:04;15.10;99.90
12893;DHT22;6514;48.606;9.222;2024-02-21T13:44:32;15.10;99.90
12893;DHT22;6514;48.606;9.222;2024-02-21T13:47:00;15.10;99.90
12893;DHT22;6514;48.606;9.222;2024-02-21T13:49:27;15.10;99.90
12893;DHT22;6514;48.606;9.222;2024-02-21T13:51:54;15.10;99.90
12893;DHT22;6514;48.606;9.222;2024-02-21T13:54:22;15.00;99.90
12893;DHT22;6514;48.606;9.222;2024-02-21T13:56:49;15.00;99.90
12893;DHT22;6514;48.606;9.222;2024-02-21T13:59:17;14.80;99.90
12893;DHT22;6514;48.606;9.222;2024-02-21T14:01:44;14.80;99.90
12893;DHT22;6514;48.606;9.222;2024-02-21T14:04:11;14.80;99.90
12893;DHT22;6514;48.606;9.222;2024-02-21T14:06:37;14.60;99.90
12893;DHT22;6514;48.606;9.222;2024-02-21T14:09:08;14.70;99.90
12893;DHT22;6514;48.606;9.222;2024-02-21T14:11:36;14.60;99.90
12893;DHT22;6514;48.606;9.222;2024-02-21T14:14:05;14.60;99.90
12893;DHT22;6514;48.606;9.222;2024-02-21T14:16:32;14.60;99.90
12893;DHT22;6514;48.606;9.222;2024-02-21T14:18:59;14.60;99.90
12893;DHT22;6514;48.606;9.222;2024-02-21T14:21:27;14.60;99.90
12893;DHT22;6514;48.606;9.222;2024-02-21T14:23:55;14.60;99.90
12893;DHT22;6514;48.606;9.222;2024-02-21T14:26:22;14.60;99.90
12893;DHT22;6514;48.606;9.222;2024-02-21T14:28:50;14.50;99.90
12893;DHT22;6514;48.606;9.222;2024-02-21T14:31:17;14.50;99.90
12893;DHT22;6514;48.606;9.222;2024-02-21T14:33:44;14.50;99.90
12893;DHT22;6514;48.606;9.222;2024-02-21T14:36:11;14.40;99.90
12893;DHT22;6514;48.606;9.222;2024-02-21T14:38:38;14.40;99.90
12893;DHT22;6514;48.606;9.222;2024-02-21T14:41:05;14.40;99.90
12893;DHT22;6514;48.606;9.222;2024-02-21T14:43:32;14.40;99.90
12893;DHT22;6514;48.606;9.222;2024-02-21T14:46:01;14.30;99.90
12893;DHT22;6514;48.606;9.222;2024-02-21T14:48:29;14.40;99.90
12893;DHT22;6514;48.606;9.222;2024-02-21T14:50:57;14.50;99.90
12893;DHT22;6514;48.606;9.222;2024-02-21T14:53:24;14.40;99.90
12893;DHT22;6514;48.606;9.222;2024-02-21T14:55:51;14.30;99.90
12893;DHT22;6514;48.606;9.222;2024-02-21T14:58:18;14.30;99.90
12893;DHT22;6514;48.606;9.222;2024-02-21T15:00:45;14.20;99.90
12893;DHT22;6514;48.606;9.222;2024-02-21T15:03:15;14.10;99.90
12893;DHT22;6514;48.606;9.222;2024-02-21T15:05:45;14.10;99.90
12893;DHT22;6514;48.606;9.222;2024-02-21T15:08:12;13.90;99.90
12893;DHT22;6514;48.606;9.222;2024-02-21T15:10:42;13.80;99.90
12893;DHT22;6514;48.606;9.222;2024-02-21T15:13:09;13.70;99.90
12893;DHT22;6514;48.606;9.222;2024-02-21T15:15:36;13.50;99.90
12893;DHT22;6514;48.606;9.222;2024-02-21T15:18:03;13.40;99.90
12893;DHT22;6514;48.606;9.222;2024-02-21T15:20:31;13.30;99.90
12893;DHT22;6514;48.606;9.222;2024-02-21T15:22:58;13.20;99.90
12893;DHT22;6514;48.606;9.222;2024-02-21T15:25:26;13.10;99.90
12893;DHT22;6514;48.606;9.222;2024-02-21T15:27:54;13.10;99.90
12893;DHT22;6514;48.606;9.222;2024-02-21T15:30:21;13.00;99.90
12893;DHT22;6514;48.606;9.222;2024-02-21T15:32:48;12.80;99.90
12893;DHT22;6514;48.606;9.222;2024-02-21T15:35:15;12.80;99.90
12893;DHT22;6514;48.606;9.222;2024-02-21T15:37:43;12.80;99.90
12893;DHT22;6514;48.606;9.222;2024-02-21T15:40:11;12.80;99.90
12893;DHT22;6514;48.606;9.222;2024-02-21T15:42:38;12.70;99.90
12893;DHT22;6514;48.606;9.222;2024-02-21T15:45:05;12.60;99.90
12893;DHT22;6514;48.606;9.222;2024-02-21T15:47:32;12.60;99.90
12893;DHT22;6514;48.606;9.222;2024-02-21T15:50:21;12.60;99.90
12893;DHT22;6514;48.606;9.222;2024-02-21T15:52:58;12.50;99.90
12893;DHT22;6514;48.606;9.222;2024-02-21T15:55:25;12.40;99.90
12893;DHT22;6514;48.606;9.222;2024-02-21T15:57:54;12.30;99.90